Time;durP1;ratioP1;P1;durP2;ratioP2;P2;SDS_P1;SDS_P2;PMS_P1;PMS_P2;Temp;Humidity;BMP_temperature;BMP_pressure;BME280_temperature;BME280_humidity;BME280_pressure;Samples;Min_cycle;Max_cycle;Signal;HPM_P1;HPM_P2
2024/02/11 00:02:06;;;;;;;7.05;4.10;;;8.80;99.90;;;;;;4973339;28;20033;-62
2024/02/11 00:04:32;;;;;;;9.27;4.30;;;8.80;99.90;;;;;;4981461;28;20027;-61
2024/02/11 00:06:58;;;;;;;10.52;5.03;;;8.80;99.90;;;;;;4982888;28;20062;-61
2024/02/11 00:09:24;;;;;;;8.73;4.32;;;8.80;99.90;;;;;;4981635;28;20065;-62
2024/02/11 00:11:51;;;;;;;11.98;4.32;;;8.80;99.90;;;;;;4978985;28;20030;-63
2024/02/11 00:14:16;;;;;;;7.13;3.92;;;8.80;99.90;;;;;;4979075;28;20035;-61
2024/02/11 00:16:42;;;;;;;15.20;4.05;;;8.80;99.90;;;;;;4979162;28;20378;-61
2024/02/11 00:19:08;;;;;;;7.28;4.72;;;8.80;99.90;;;;;;4968041;28;20502;-62
2024/02/11 00:21:34;;;;;;;6.82;4.18;;;8.80;99.90;;;;;;4968324;28;20031;-62
2024/02/11 00:24:00;;;;;;;8.63;4.50;;;8.80;99.90;;;;;;4982403;28;20022;-60
2024/02/11 00:26:25;;;;;;;7.00;4.10;;;8.80;99.90;;;;;;4976345;28;20480;-62
2024/02/11 00:28:51;;;;;;;14.40;4.68;;;8.70;99.90;;;;;;4977793;28;20041;-62
2024/02/11 00:31:16;;;;;;;8.32;4.70;;;8.80;99.90;;;;;;4974033;28;20037;-62
2024/02/11 00:33:44;;;;;;;8.38;4.32;;;8.70;99.90;;;;;;4972960;28;20031;-62
2024/02/11 00:36:10;;;;;;;10.48;4.72;;;8.70;99.90;;;;;;4972820;28;20497;-62
2024/02/11 00:38:35;;;;;;;11.18;5.22;;;8.70;99.90;;;;;;4970341;28;20030;-62
2024/02/11 00:41:01;;;;;;;15.18;4.45;;;8.70;99.90;;;;;;4979720;28;20098;-62
2024/02/11 00:43:27;;;;;;;8.32;4.90;;;8.70;99.90;;;;;;4973143;28;20026;-61
2024/02/11 00:45:52;;;;;;;10.40;4.85;;;8.70;99.90;;;;;;4971706;28;20035;-61
2024/02/11 00:48:18;;;;;;;8.93;4.95;;;8.80;99.90;;;;;;4975991;28;20034;-61
2024/02/11 00:50:43;;;;;;;10.55;4.97;;;8.80;99.90;;;;;;4969527;28;20096;-62
2024/02/11 00:53:10;;;;;;;8.43;4.00;;;8.80;99.90;;;;;;4976403;28;20456;-63
2024/02/11 00:55:36;;;;;;;6.82;4.38;;;8.80;99.90;;;;;;4971151;28;20046;-62
2024/02/11 00:58:05;;;;;;;12.02;4.50;;;8.80;99.90;;;;;;4973821;28;20027;-61
2024/02/11 01:00:33;;;;;;;9.05;5.18;;;8.80;99.90;;;;;;4970508;28;20027;-63
2024/02/11 01:02:58;;;;;;;6.88;4.10;;;8.80;99.90;;;;;;4968820;28;20554;-61
2024/02/11 01:05:24;;;;;;;9.70;4.93;;;8.80;99.90;;;;;;4975860;28;20030;-61
2024/02/11 01:07:50;;;;;;;7.70;4.10;;;8.90;99.90;;;;;;4973146;28;20033;-62
2024/02/11 01:10:17;;;;;;;8.82;3.78;;;8.90;99.90;;;;;;4975117;28;20035;-62
2024/02/11 01:12:44;;;;;;;8.27;4.10;;;8.90;99.90;;;;;;4972546;28;20030;-61
2024/02/11 01:15:13;;;;;;;7.85;4.22;;;8.90;99.90;;;;;;4971680;28;20038;-63
2024/02/11 01:17:40;;;;;;;11.52;5.00;;;8.90;99.90;;;;;;4975892;28;20034;-62
2024/02/11 01:20:09;;;;;;;8.93;3.88;;;8.90;99.90;;;;;;4974662;28;20061;-61
2024/02/11 01:22:35;;;;;;;9.40;4.22;;;8.90;99.90;;;;;;4974175;28;20057;-62
2024/02/11 01:25:01;;;;;;;10.27;3.72;;;8.90;99.90;;;;;;4973082;28;20023;-63
2024/02/11 01:27:27;;;;;;;7.03;4.38;;;8.90;99.90;;;;;;4981642;28;20049;-62
2024/02/11 01:29:53;;;;;;;7.55;4.03;;;8.90;99.90;;;;;;4976060;28;20109;-62
2024/02/11 01:32:23;;;;;;;5.97;3.90;;;8.90;99.90;;;;;;4972085;28;20801;-61
2024/02/11 01:34:49;;;;;;;9.07;4.38;;;8.90;99.90;;;;;;4973780;28;20105;-62
2024/02/11 01:37:15;;;;;;;7.22;3.60;;;8.80;99.90;;;;;;4977217;28;20038;-63
2024/02/11 01:39:41;;;;;;;5.95;3.70;;;8.80;99.90;;;;;;4969201;28;20029;-62
2024/02/11 01:42:06;;;;;;;8.57;4.07;;;8.80;99.90;;;;;;4993869;28;20027;-61
2024/02/11 01:44:32;;;;;;;9.20;4.40;;;8.80;99.90;;;;;;4964574;28;20031;-63
2024/02/11 01:46:58;;;;;;;9.27;4.18;;;8.80;99.90;;;;;;4972923;28;20033;-62
2024/02/11 01:49:24;;;;;;;6.97;4.53;;;8.80;99.90;;;;;;4969205;28;20038;-62
2024/02/11 01:51:51;;;;;;;9.45;4.43;;;8.90;99.90;;;;;;4970540;28;20038;-62
2024/02/11 01:54:19;;;;;;;6.20;4.10;;;8.90;99.90;;;;;;4970906;28;20425;-63
2024/02/11 01:56:51;;;;;;;9.65;3.78;;;8.80;99.90;;;;;;4968918;28;20409;-63
2024/02/11 01:59:18;;;;;;;9.65;4.18;;;8.80;99.90;;;;;;4965735;28;20035;-62
2024/02/11 02:01:45;;;;;;;5.97;3.67;;;8.80;99.90;;;;;;4954420;28;20035;-63
2024/02/11 02:04:11;;;;;;;10.68;4.57;;;8.90;99.90;;;;;;4964886;28;20110;-61
2024/02/11 02:06:37;;;;;;;7.38;4.18;;;8.90;99.90;;;;;;4971425;28;20437;-61
2024/02/11 02:09:03;;;;;;;6.70;4.30;;;8.80;99.90;;;;;;4975117;28;20058;-61
2024/02/11 02:11:30;;;;;;;8.30;4.05;;;8.80;99.90;;;;;;4966848;28;20485;-62
2024/02/11 02:13:55;;;;;;;10.85;4.25;;;8.80;99.90;;;;;;4969528;28;20093;-62
2024/02/11 02:16:24;;;;;;;9.02;4.57;;;8.70;99.90;;;;;;4971543;28;20027;-61
2024/02/11 02:18:53;;;;;;;7.07;4.35;;;8.80;99.90;;;;;;4972485;28;20120;-62
2024/02/11 02:21:22;;;;;;;7.15;4.03;;;8.80;99.90;;;;;;4975560;28;20026;-60
2024/02/11 02:23:48;;;;;;;12.23;4.80;;;8.80;99.90;;;;;;4977224;28;20080;-60
2024/02/11 02:26:14;;;;;;;6.80;3.90;;;8.80;99.90;;;;;;4976833;28;20090;-61
2024/02/11 02:28:40;;;;;;;9.15;4.03;;;8.90;99.90;;;;;;4972678;28;20444;-62
2024/02/11 02:31:07;;;;;;;7.03;4.07;;;8.90;99.90;;;;;;4976689;28;20089;-60
2024/02/11 02:33:33;;;;;;;6.72;3.75;;;8.90;99.90;;;;;;4972490;28;20054;-62
2024/02/11 02:35:58;;;;;;;10.40;4.18;;;9.00;99.90;;;;;;4974548;28;20035;-62
2024/02/11 02:38:24;;;;;;;8.18;3.58;;;9.00;99.90;;;;;;4980060;28;20041;-63
2024/02/11 02:40:50;;;;;;;8.27;4.45;;;9.00;99.90;;;;;;4979388;28;20023;-61
2024/02/11 02:43:17;;;;;;;7.70;4.57;;;9.00;99.90;;;;;;4983875;28;20113;-62
2024/02/11 02:45:42;;;;;;;9.07;4.38;;;9.00;99.90;;;;;;4975097;28;20030;-62
2024/02/11 02:48:08;;;;;;;7.03;4.10;;;9.00;99.90;;;;;;4976875;28;20041;-62
2024/02/11 02:50:37;;;;;;;7.90;4.18;;;9.00;99.90;;;;;;4975590;28;20038;-63
2024/02/11 02:53:03;;;;;;;8.13;4.15;;;9.00;99.90;;;;;;4974723;28;20049;-62
2024/02/11 02:55:29;;;;;;;11.00;4.82;;;9.10;99.90;;;;;;4973621;28;20497;-60
2024/02/11 02:57:55;;;;;;;9.70;4.63;;;9.10;99.90;;;;;;4966067;28;20050;-62
2024/02/11 03:00:21;;;;;;;9.25;3.65;;;9.10;99.90;;;;;;4977708;28;20641;-62
2024/02/11 03:02:47;;;;;;;9.13;4.30;;;9.10;99.90;;;;;;4970379;28;20049;-62
2024/02/11 03:05:13;;;;;;;5.97;3.83;;;9.10;99.90;;;;;;4972076;28;20027;-61
2024/02/11 03:07:40;;;;;;;7.35;4.32;;;9.10;99.90;;;;;;4977696;28;20041;-63
2024/02/11 03:10:07;;;;;;;7.13;4.43;;;9.10;99.90;;;;;;4973048;28;20082;-63
2024/02/11 03:12:32;;;;;;;8.95;4.38;;;9.20;99.90;;;;;;4973340;28;20039;-60
2024/02/11 03:14:58;;;;;;;7.32;4.05;;;9.20;99.90;;;;;;4967543;28;20085;-62
2024/02/11 03:17:23;;;;;;;8.02;4.32;;;9.20;99.90;;;;;;4971253;28;20405;-62
2024/02/11 03:19:49;;;;;;;11.13;4.78;;;9.20;99.90;;;;;;4970507;28;20042;-62
2024/02/11 03:22:14;;;;;;;9.02;4.93;;;9.20;99.90;;;;;;4970229;28;20034;-62
2024/02/11 03:24:40;;;;;;;8.25;4.20;;;9.20;99.90;;;;;;4969802;28;20026;-62
2024/02/11 03:27:07;;;;;;;9.02;4.85;;;9.20;99.90;;;;;;4972155;28;20063;-62
2024/02/11 03:29:36;;;;;;;9.68;5.18;;;9.20;99.90;;;;;;4955503;28;20054;-61
2024/02/11 03:32:02;;;;;;;7.75;4.50;;;9.20;99.90;;;;;;4967875;28;20062;-62
2024/02/11 03:34:27;;;;;;;9.90;5.05;;;9.20;99.90;;;;;;4972367;28;20081;-60
2024/02/11 03:36:53;;;;;;;7.70;5.28;;;9.20;99.90;;;;;;4971195;28;20027;-61
2024/02/11 03:39:19;;;;;;;7.22;4.22;;;9.20;99.90;;;;;;4972205;28;20035;-61
2024/02/11 03:41:45;;;;;;;10.73;4.70;;;9.20;99.90;;;;;;4971800;28;20058;-62
2024/02/11 03:44:11;;;;;;;8.65;5.32;;;9.20;99.90;;;;;;4974899;28;20026;-63
2024/02/11 03:46:37;;;;;;;7.32;4.55;;;9.20;99.90;;;;;;4979581;28;20081;-62
2024/02/11 03:49:02;;;;;;;13.20;5.95;;;9.20;99.90;;;;;;4973762;28;20022;-63
2024/02/11 03:51:29;;;;;;;7.88;5.22;;;9.20;99.90;;;;;;4976578;28;20046;-61
2024/02/11 03:53:56;;;;;;;11.75;5.55;;;9.20;99.90;;;;;;4967982;28;20496;-60
2024/02/11 03:56:26;;;;;;;11.35;5.60;;;9.20;99.90;;;;;;4968115;28;20038;-61
2024/02/11 03:58:52;;;;;;;10.20;5.15;;;9.10;99.90;;;;;;4975107;28;20541;-62
2024/02/11 04:01:18;;;;;;;7.78;5.05;;;9.10;99.90;;;;;;4975694;28;20069;-62
2024/02/11 04:03:44;;;;;;;7.32;5.00;;;9.10;99.90;;;;;;4971513;28;20034;-62
2024/02/11 04:06:11;;;;;;;9.98;5.70;;;9.10;99.90;;;;;;4979046;28;20030;-62
2024/02/11 04:08:41;;;;;;;10.35;6.20;;;9.20;99.90;;;;;;4974120;28;20018;-60
2024/02/11 04:11:07;;;;;;;11.73;6.07;;;9.20;99.90;;;;;;4986755;28;20121;-63
2024/02/11 04:13:33;;;;;;;11.85;6.28;;;9.30;99.90;;;;;;4980130;28;20495;-62
2024/02/11 04:16:05;;;;;;;10.60;5.80;;;9.20;99.90;;;;;;4967933;28;20047;-62
2024/02/11 04:18:32;;;;;;;13.38;6.35;;;9.20;99.90;;;;;;4976112;28;20373;-62
2024/02/11 04:20:59;;;;;;;10.10;5.80;;;9.20;99.90;;;;;;4981950;28;20062;-62
2024/02/11 04:23:25;;;;;;;9.13;5.45;;;9.20;99.90;;;;;;4969871;28;20027;-62
2024/02/11 04:25:52;;;;;;;10.68;5.97;;;9.20;99.90;;;;;;4978214;28;20400;-62
2024/02/11 04:28:20;;;;;;;8.65;5.53;;;9.20;99.90;;;;;;4972306;28;20030;-62
2024/02/11 04:30:46;;;;;;;8.52;5.80;;;9.10;99.90;;;;;;4960201;28;20049;-61
2024/02/11 04:33:20;;;;;;;10.27;5.63;;;9.10;99.90;;;;;;4975035;28;20031;-62
2024/02/11 04:35:46;;;;;;;13.98;5.97;;;9.10;99.90;;;;;;4965151;28;20481;-61
2024/02/11 04:38:12;;;;;;;10.68;6.18;;;9.10;99.90;;;;;;4957474;28;20090;-61
2024/02/11 04:40:39;;;;;;;10.25;6.10;;;9.10;99.90;;;;;;4977982;28;20062;-62
2024/02/11 04:43:05;;;;;;;11.23;6.22;;;9.00;99.90;;;;;;4970202;28;20026;-62
2024/02/11 04:45:31;;;;;;;10.80;6.20;;;9.00;99.90;;;;;;4973478;28;20027;-62
2024/02/11 04:48:03;;;;;;;10.90;6.38;;;9.00;99.90;;;;;;4978806;28;20035;-62
2024/02/11 04:50:30;;;;;;;8.85;5.88;;;9.10;99.90;;;;;;4977001;28;20035;-60
2024/02/11 04:53:01;;;;;;;13.88;6.15;;;9.10;99.90;;;;;;4966587;28;20552;-63
2024/02/11 04:55:28;;;;;;;9.52;6.10;;;9.10;99.90;;;;;;4973362;28;20409;-63
2024/02/11 04:57:58;;;;;;;14.95;6.28;;;9.10;99.90;;;;;;4971485;28;20062;-62
2024/02/11 05:00:25;;;;;;;8.98;5.95;;;9.00;99.90;;;;;;4975380;28;20038;-62
2024/02/11 05:02:56;;;;;;;11.00;6.43;;;9.10;99.90;;;;;;4976013;28;20034;-62
2024/02/11 05:05:30;;;;;;;12.43;6.32;;;9.20;99.90;;;;;;4981805;28;20035;-62
2024/02/11 05:07:57;;;;;;;8.77;5.10;;;9.20;99.90;;;;;;4980000;28;20034;-62
2024/02/11 05:10:27;;;;;;;10.48;5.30;;;9.30;99.90;;;;;;4978729;28;20433;-62
2024/02/11 05:12:54;;;;;;;8.43;5.07;;;9.30;99.90;;;;;;4971139;28;20035;-61
2024/02/11 05:15:20;;;;;;;6.03;4.13;;;9.30;99.90;;;;;;4969693;28;20564;-62
2024/02/11 05:17:49;;;;;;;6.68;3.80;;;9.30;99.90;;;;;;4967905;28;20027;-61
2024/02/11 05:20:23;;;;;;;8.93;4.28;;;9.40;99.90;;;;;;4967202;28;20446;-62
2024/02/11 05:22:55;;;;;;;7.05;3.47;;;9.40;99.90;;;;;;4968795;28;20421;-61
2024/02/11 05:25:25;;;;;;;7.13;3.83;;;9.40;99.90;;;;;;4983232;28;20055;-62
2024/02/11 05:27:59;;;;;;;5.68;2.88;;;9.40;99.90;;;;;;4973605;28;20485;-62
2024/02/11 05:30:29;;;;;;;6.57;2.53;;;9.40;99.90;;;;;;4967552;28;20058;-61
2024/02/11 05:32:57;;;;;;;3.70;2.35;;;9.40;99.90;;;;;;4966905;28;20067;-63
2024/02/11 05:35:27;;;;;;;5.40;2.10;;;9.40;99.90;;;;;;4970849;28;20489;-62
2024/02/11 05:37:59;;;;;;;4.45;1.90;;;9.40;99.90;;;;;;4975927;28;20526;-61
2024/02/11 05:40:26;;;;;;;3.92;1.55;;;9.40;99.90;;;;;;4972504;28;20122;-62
2024/02/11 05:42:53;;;;;;;2.03;1.30;;;9.40;99.90;;;;;;4973050;28;20019;-59
2024/02/11 05:45:20;;;;;;;1.65;1.08;;;9.40;99.90;;;;;;4973122;28;20453;-62
2024/02/11 05:47:47;;;;;;;1.70;1.02;;;9.30;99.90;;;;;;4976246;28;20093;-62
2024/02/11 05:50:13;;;;;;;1.00;0.70;;;9.30;99.90;;;;;;4965020;28;20057;-62
2024/02/11 05:52:39;;;;;;;1.52;0.40;;;9.30;99.90;;;;;;4973860;28;20074;-59
2024/02/11 05:55:09;;;;;;;3.17;0.70;;;9.30;99.90;;;;;;4966635;28;20422;-61
2024/02/11 05:57:41;;;;;;;0.35;0.22;;;9.40;99.90;;;;;;4967524;28;20497;-63
2024/02/11 06:00:12;;;;;;;0.30;0.30;;;9.30;99.90;;;;;;4968177;28;20026;-62
2024/02/11 06:02:42;;;;;;;0.25;0.25;;;9.30;99.90;;;;;;4966644;28;20023;-61
2024/02/11 06:05:14;;;;;;;0.20;0.20;;;9.20;99.90;;;;;;4976575;28;20026;-63
2024/02/11 06:11:03;;;;;;;1.83;0.70;;;8.90;99.90;;;;;;4952837;28;20065;-61
2024/02/11 06:13:30;;;;;;;4.72;0.70;;;8.60;99.90;;;;;;4973001;28;20037;-61
2024/02/11 06:15:55;;;;;;;4.05;1.77;;;8.40;99.90;;;;;;4969925;28;20649;-61
2024/02/11 06:18:22;;;;;;;4.40;1.30;;;8.20;99.90;;;;;;4972063;28;20121;-63
2024/02/11 06:20:47;;;;;;;3.88;1.15;;;8.10;99.90;;;;;;4964466;28;20030;-62
2024/02/11 06:23:13;;;;;;;3.88;1.50;;;8.00;99.90;;;;;;4970986;28;20545;-61
2024/02/11 06:25:38;;;;;;;5.30;1.55;;;7.90;99.90;;;;;;4980713;28;20114;-63
2024/02/11 06:28:04;;;;;;;4.05;1.25;;;7.80;99.90;;;;;;4972848;28;20106;-61
2024/02/11 06:30:30;;;;;;;4.00;1.15;;;7.80;99.90;;;;;;4973126;28;20059;-62
2024/02/11 06:32:56;;;;;;;4.80;1.70;;;7.70;99.90;;;;;;4971146;28;20102;-62
2024/02/11 06:35:23;;;;;;;3.83;1.70;;;7.70;99.90;;;;;;4974031;28;20050;-62
2024/02/11 06:37:51;;;;;;;9.27;2.00;;;7.70;99.90;;;;;;4973169;28;20033;-61
2024/02/11 06:40:18;;;;;;;7.05;1.95;;;7.70;99.90;;;;;;4982157;28;20031;-62
2024/02/11 06:42:47;;;;;;;13.90;3.17;;;7.60;99.90;;;;;;4969084;28;20073;-62
2024/02/11 06:45:13;;;;;;;6.65;2.03;;;7.60;99.90;;;;;;4970867;28;20026;-62
2024/02/11 06:47:40;;;;;;;14.48;2.30;;;7.60;99.90;;;;;;4967833;28;20035;-62
2024/02/11 06:50:08;;;;;;;7.28;2.53;;;7.60;99.90;;;;;;4964946;28;20015;-60
2024/02/11 06:52:34;;;;;;;6.85;2.15;;;7.60;99.90;;;;;;4972806;28;20015;-61
2024/02/11 06:55:04;;;;;;;8.00;2.70;;;7.60;99.90;;;;;;4965361;28;20031;-61
2024/02/11 06:57:32;;;;;;;8.65;2.42;;;7.60;99.90;;;;;;4969031;28;20050;-60
2024/02/11 06:59:58;;;;;;;6.95;2.80;;;7.60;99.90;;;;;;4970636;28;20035;-63
2024/02/11 07:02:24;;;;;;;7.13;2.85;;;7.60;99.90;;;;;;4971926;28;20081;-60
2024/02/11 07:04:54;;;;;;;7.95;2.90;;;7.60;99.90;;;;;;4969649;28;20026;-62
2024/02/11 07:07:21;;;;;;;8.60;3.22;;;7.60;99.90;;;;;;4968972;28;20026;-61
2024/02/11 07:09:48;;;;;;;12.75;2.35;;;7.60;99.90;;;;;;4967497;28;20056;-62
2024/02/11 07:12:16;;;;;;;6.07;2.88;;;7.70;99.90;;;;;;4968647;28;20033;-62
2024/02/11 07:14:44;;;;;;;6.03;2.70;;;7.70;99.90;;;;;;4969558;28;20147;-62
2024/02/11 07:17:11;;;;;;;6.00;2.38;;;7.70;99.90;;;;;;4970057;28;20046;-61
2024/02/11 07:19:37;;;;;;;5.47;3.20;;;7.70;99.90;;;;;;4969104;28;20023;-63
2024/02/11 07:22:03;;;;;;;8.55;2.28;;;7.70;99.90;;;;;;5004980;23;20038;-59
2024/02/11 07:24:29;;;;;;;17.55;3.25;;;7.70;99.90;;;;;;5013824;28;20471;-59
2024/02/11 07:26:55;;;;;;;9.40;2.72;;;7.70;99.90;;;;;;5014054;28;20030;-58
2024/02/11 07:29:21;;;;;;;6.07;2.50;;;7.70;99.90;;;;;;4996753;28;20030;-59
2024/02/11 07:31:48;;;;;;;4.55;2.28;;;7.70;99.90;;;;;;5011041;28;20076;-59
2024/02/11 07:34:14;;;;;;;6.03;2.33;;;7.70;99.90;;;;;;5014198;28;20431;-58
2024/02/11 07:36:40;;;;;;;6.28;2.00;;;7.70;99.90;;;;;;4991108;28;20041;-59
2024/02/11 07:39:05;;;;;;;5.80;2.35;;;7.70;99.90;;;;;;5013931;28;20487;-60
2024/02/11 07:41:31;;;;;;;5.97;3.40;;;7.70;99.90;;;;;;5013799;28;20033;-57
2024/02/11 07:43:57;;;;;;;4.40;2.35;;;7.70;99.90;;;;;;5013830;28;20029;-60
2024/02/11 07:46:22;;;;;;;7.40;2.67;;;7.70;99.90;;;;;;5013504;28;20026;-58
2024/02/11 07:48:48;;;;;;;8.35;3.20;;;7.80;99.90;;;;;;5013324;28;20503;-61
2024/02/11 07:51:15;;;;;;;5.78;2.38;;;7.80;99.90;;;;;;4994814;28;20106;-58
2024/02/11 07:53:41;;;;;;;6.03;3.00;;;7.80;99.90;;;;;;4996053;28;20045;-58
2024/02/11 07:56:14;;;;;;;9.50;2.63;;;7.80;99.90;;;;;;5013458;28;20026;-57
2024/02/11 07:58:40;;;;;;;9.00;2.95;;;7.80;99.90;;;;;;5013413;28;20030;-58
2024/02/11 08:01:07;;;;;;;5.40;2.58;;;7.80;99.90;;;;;;5013281;28;20032;-57
2024/02/11 08:03:33;;;;;;;5.22;2.30;;;7.80;99.90;;;;;;5011725;28;20034;-58
2024/02/11 08:05:59;;;;;;;11.38;2.45;;;7.90;99.90;;;;;;5013265;28;20033;-57
2024/02/11 08:08:25;;;;;;;6.32;2.22;;;7.90;99.90;;;;;;5012845;28;20499;-57
2024/02/11 08:10:51;;;;;;;6.65;3.00;;;7.90;99.90;;;;;;5012720;28;20038;-58
2024/02/11 08:13:17;;;;;;;7.50;3.08;;;7.90;99.90;;;;;;5013130;28;20022;-58
2024/02/11 08:15:45;;;;;;;8.07;3.13;;;7.90;99.90;;;;;;5013330;28;20391;-56
2024/02/11 08:18:11;;;;;;;8.57;3.47;;;8.00;99.90;;;;;;4993734;28;20492;-59
2024/02/11 08:20:36;;;;;;;4.30;2.40;;;8.10;99.90;;;;;;4993626;28;20042;-59
2024/02/11 08:23:03;;;;;;;7.28;3.15;;;8.20;99.90;;;;;;5002097;28;20095;-57
2024/02/11 08:25:28;;;;;;;9.68;2.80;;;8.30;99.90;;;;;;5013100;28;20030;-58
2024/02/11 08:27:55;;;;;;;10.43;2.85;;;8.40;99.90;;;;;;5012809;28;20096;-60
2024/02/11 08:30:22;;;;;;;7.22;2.75;;;8.40;99.90;;;;;;5012915;28;20056;-58
2024/02/11 08:32:48;;;;;;;5.88;2.40;;;8.40;99.90;;;;;;5032588;28;20041;-58
2024/02/11 08:35:14;;;;;;;6.90;3.00;;;8.50;99.90;;;;;;5032672;28;20541;-61
2024/02/11 08:37:40;;;;;;;6.53;2.22;;;8.40;99.90;;;;;;5032514;28;20387;-60
2024/02/11 08:40:07;;;;;;;5.70;2.17;;;8.50;99.90;;;;;;5032700;28;20029;-60
2024/02/11 08:42:33;;;;;;;7.90;3.40;;;8.50;99.90;;;;;;5032482;28;20026;-58
2024/02/11 08:44:59;;;;;;;7.60;3.28;;;8.50;99.90;;;;;;5032284;28;20032;-58
2024/02/11 08:47:25;;;;;;;6.35;2.70;;;8.50;99.90;;;;;;5032176;28;20017;-60
2024/02/11 08:49:50;;;;;;;7.72;2.50;;;8.50;99.90;;;;;;5032229;28;20021;-55
2024/02/11 08:52:16;;;;;;;5.35;2.60;;;8.60;99.90;;;;;;5014344;28;20487;-58
2024/02/11 08:54:42;;;;;;;5.63;3.13;;;8.50;99.90;;;;;;5012424;28;20026;-57
2024/02/11 08:57:14;;;;;;;6.75;2.63;;;8.60;99.90;;;;;;5012179;28;20071;-58
2024/02/11 08:59:43;;;;;;;9.32;3.30;;;8.60;99.90;;;;;;5012529;28;20041;-57
2024/02/11 09:02:10;;;;;;;10.02;2.97;;;8.60;99.90;;;;;;5012243;28;20021;-59
2024/02/11 09:04:37;;;;;;;6.75;2.58;;;8.50;99.90;;;;;;5012418;28;20108;-59
2024/02/11 09:07:05;;;;;;;8.40;3.30;;;8.60;99.90;;;;;;5012187;28;20453;-60
2024/02/11 09:09:33;;;;;;;21.75;9.35;;;8.50;99.90;;;;;;5012149;28;20038;-58
2024/02/11 09:11:59;;;;;;;5.97;3.42;;;8.50;99.90;;;;;;5011972;28;20061;-57
2024/02/11 09:14:26;;;;;;;6.72;2.67;;;8.50;99.90;;;;;;5012089;28;20061;-58
2024/02/11 09:16:58;;;;;;;7.80;2.78;;;8.50;99.90;;;;;;5011023;28;20479;-60
2024/02/11 09:19:25;;;;;;;7.75;2.65;;;8.60;99.90;;;;;;5008063;28;20034;-59
2024/02/11 09:21:52;;;;;;;3.70;2.15;;;8.60;99.90;;;;;;5010738;28;20577;-59
2024/02/11 09:24:18;;;;;;;15.73;7.10;;;8.60;99.90;;;;;;5011732;28;20022;-59
2024/02/11 09:26:43;;;;;;;19.17;6.53;;;8.60;99.90;;;;;;5011414;28;20562;-59
2024/02/11 09:29:10;;;;;;;19.90;10.15;;;8.60;99.90;;;;;;5011422;28;20101;-59
2024/02/11 09:31:36;;;;;;;15.52;6.88;;;8.60;99.90;;;;;;5011495;28;20030;-60
2024/02/11 09:34:02;;;;;;;8.23;3.33;;;8.70;99.90;;;;;;5011476;28;20053;-58
2024/02/11 09:36:28;;;;;;;7.97;3.03;;;8.70;99.90;;;;;;5000020;28;20041;-57
2024/02/11 09:38:53;;;;;;;8.93;2.30;;;8.80;99.90;;;;;;4991778;28;20033;-58
2024/02/11 09:41:19;;;;;;;5.18;2.55;;;8.90;99.90;;;;;;4991604;28;20046;-58
2024/02/11 09:43:47;;;;;;;6.47;2.80;;;9.10;99.90;;;;;;4991663;28;20539;-59
2024/02/11 09:46:18;;;;;;;6.97;3.17;;;9.10;99.90;;;;;;4991671;28;20141;-59
2024/02/11 09:48:46;;;;;;;9.93;3.38;;;9.20;99.90;;;;;;4991556;28;20062;-59
2024/02/11 09:51:14;;;;;;;6.80;3.10;;;9.30;99.90;;;;;;4991364;28;20038;-59
2024/02/11 09:53:42;;;;;;;5.95;2.47;;;9.30;99.90;;;;;;4991335;28;20405;-59
2024/02/11 09:56:07;;;;;;;8.40;3.30;;;9.30;99.90;;;;;;4991597;28;20030;-59
2024/02/11 09:58:33;;;;;;;8.85;2.58;;;9.30;99.90;;;;;;4991410;28;20481;-59
2024/02/11 10:01:00;;;;;;;6.85;2.83;;;9.40;99.90;;;;;;4991389;28;20034;-59
2024/02/11 10:03:30;;;;;;;6.38;2.97;;;9.40;99.90;;;;;;4993285;28;20033;-58
2024/02/11 10:05:58;;;;;;;4.38;2.60;;;9.40;99.90;;;;;;5010845;28;20037;-59
2024/02/11 10:08:24;;;;;;;7.20;2.75;;;9.40;99.90;;;;;;5011094;28;20022;-59
2024/02/11 10:10:50;;;;;;;5.93;2.53;;;9.60;99.90;;;;;;5011068;28;20053;-59
2024/02/11 10:13:19;;;;;;;4.88;2.58;;;9.70;99.90;;;;;;5011075;28;20030;-59
2024/02/11 10:15:49;;;;;;;7.65;3.00;;;9.80;99.90;;;;;;5010826;28;20108;-59
2024/02/11 10:18:18;;;;;;;4.60;2.75;;;9.80;99.90;;;;;;5010643;28;20029;-58
2024/02/11 10:20:48;;;;;;;8.50;2.90;;;9.90;99.90;;;;;;5010627;28;20021;-58
2024/02/11 10:23:18;;;;;;;5.13;3.20;;;9.90;99.90;;;;;;5010452;28;20033;-58
2024/02/11 10:25:51;;;;;;;6.75;3.55;;;9.90;99.90;;;;;;5010978;28;20038;-59
2024/02/11 10:28:17;;;;;;;4.68;2.53;;;9.90;99.90;;;;;;5010683;28;20060;-59
2024/02/11 10:30:43;;;;;;;4.90;2.95;;;10.00;99.90;;;;;;5010542;28;20056;-59
2024/02/11 10:33:12;;;;;;;9.13;3.58;;;10.20;99.90;;;;;;5012521;28;20025;-58
2024/02/11 10:35:41;;;;;;;8.93;4.57;;;10.30;99.90;;;;;;5014613;28;20478;-56
2024/02/11 10:38:07;;;;;;;6.05;3.95;;;10.20;99.90;;;;;;5014072;28;20057;-58
2024/02/11 10:40:37;;;;;;;8.73;4.10;;;10.10;99.90;;;;;;5014168;28;20643;-58
2024/02/11 10:43:05;;;;;;;9.65;5.55;;;10.00;99.90;;;;;;5014455;28;20022;-58
2024/02/11 10:45:31;;;;;;;8.50;4.72;;;9.90;99.90;;;;;;5014220;28;20033;-58
2024/02/11 10:47:57;;;;;;;12.48;6.63;;;10.00;99.90;;;;;;5014492;28;20029;-58
2024/02/11 10:50:22;;;;;;;9.25;4.70;;;10.00;99.90;;;;;;5014088;28;20030;-59
2024/02/11 10:52:50;;;;;;;9.95;5.55;;;10.10;99.90;;;;;;5014243;28;20060;-59
2024/02/11 10:55:18;;;;;;;15.52;7.38;;;10.30;99.90;;;;;;5014252;28;20053;-59
2024/02/11 10:57:49;;;;;;;55.45;22.70;;;10.40;99.90;;;;;;5013480;28;20389;-59
2024/02/11 11:00:17;;;;;;;20.33;9.68;;;10.50;99.90;;;;;;5014296;28;20100;-59
2024/02/11 11:02:44;;;;;;;13.05;5.88;;;10.70;99.90;;;;;;5013904;28;20025;-58
2024/02/11 11:05:17;;;;;;;5.78;3.58;;;10.80;99.90;;;;;;5014024;28;20022;-59
2024/02/11 11:07:48;;;;;;;12.52;4.53;;;10.90;99.90;;;;;;5013872;28;20068;-59
2024/02/11 11:10:14;;;;;;;23.83;9.50;;;11.10;99.90;;;;;;5014012;28;20117;-59
2024/02/11 11:12:50;;;;;;;23.63;8.60;;;11.10;99.90;;;;;;5013669;28;20106;-58
2024/02/11 11:15:31;;;;;;;17.73;6.82;;;11.20;99.90;;;;;;5029198;28;20079;-58
2024/02/11 11:18:02;;;;;;;9.15;3.85;;;11.50;99.90;;;;;;5030866;28;20113;-59
2024/02/11 11:20:29;;;;;;;6.70;3.10;;;11.30;99.90;;;;;;5003888;28;20025;-59
2024/02/11 11:22:55;;;;;;;7.03;3.35;;;11.40;99.90;;;;;;5012198;28;20492;-59
2024/02/11 11:25:31;;;;;;;22.98;6.93;;;11.40;99.90;;;;;;5013632;28;20034;-59
2024/02/11 11:28:13;;;;;;;14.77;5.72;;;11.20;99.90;;;;;;5013764;28;20028;-59
2024/02/11 11:30:39;;;;;;;24.20;7.43;;;11.30;99.90;;;;;;5013615;28;20030;-59
2024/02/11 11:33:05;;;;;;;15.18;6.35;;;11.20;99.90;;;;;;5013532;28;20022;-59
2024/02/11 11:35:31;;;;;;;28.15;9.48;;;11.30;99.90;;;;;;5013641;28;20038;-58
2024/02/11 11:38:01;;;;;;;61.95;20.65;;;11.30;99.90;;;;;;5013501;28;20025;-59
2024/02/11 11:40:31;;;;;;;21.90;8.57;;;11.20;99.90;;;;;;5013411;28;20067;-59
2024/02/11 11:42:57;;;;;;;11.30;5.40;;;11.10;99.90;;;;;;5013488;28;20353;-59
2024/02/11 11:45:22;;;;;;;101.90;36.83;;;11.00;99.90;;;;;;5012798;28;20128;-59
2024/02/11 11:47:51;;;;;;;42.17;16.42;;;11.10;99.90;;;;;;5013147;28;20026;-59
2024/02/11 11:50:20;;;;;;;9.45;5.00;;;11.20;99.90;;;;;;5012874;28;20369;-59
2024/02/11 11:52:49;;;;;;;7.35;2.88;;;11.30;99.90;;;;;;5013197;28;20377;-59
2024/02/11 11:55:15;;;;;;;4.15;2.35;;;11.30;99.90;;;;;;5012960;28;20030;-59
2024/02/11 11:57:40;;;;;;;3.10;2.47;;;11.40;99.90;;;;;;5012964;28;20049;-59
2024/02/11 12:00:07;;;;;;;16.95;7.20;;;11.30;99.90;;;;;;5013064;28;20062;-58
2024/02/11 12:02:35;;;;;;;9.05;3.53;;;11.20;99.90;;;;;;5013159;28;20068;-57
2024/02/11 12:05:02;;;;;;;5.32;2.67;;;11.30;99.90;;;;;;5013123;28;20251;-59
2024/02/11 12:07:30;;;;;;;4.88;3.20;;;11.20;99.90;;;;;;5011156;28;20427;-59
2024/02/11 12:09:56;;;;;;;2.75;2.15;;;11.20;99.90;;;;;;5012738;28;20018;-58
2024/02/11 12:12:22;;;;;;;5.25;2.42;;;11.30;99.90;;;;;;5012620;28;20034;-59
2024/02/11 12:14:48;;;;;;;3.92;2.40;;;11.50;99.90;;;;;;5012260;28;20087;-59
2024/02/11 12:17:15;;;;;;;4.18;1.90;;;11.80;99.90;;;;;;4993631;28;20092;-59
2024/02/11 12:19:42;;;;;;;2.60;1.80;;;12.00;99.90;;;;;;4993128;28;20034;-59
2024/02/11 12:22:08;;;;;;;3.97;2.25;;;12.30;99.90;;;;;;4992894;28;20030;-59
2024/02/11 12:24:41;;;;;;;2.58;1.88;;;12.60;99.90;;;;;;4992938;28;20037;-59
2024/02/11 12:27:10;;;;;;;3.33;2.17;;;12.70;99.90;;;;;;5002309;28;20021;-59
2024/02/11 12:29:35;;;;;;;4.32;1.75;;;12.70;99.90;;;;;;5012378;28;20033;-58
2024/02/11 12:32:03;;;;;;;3.08;1.70;;;12.80;99.90;;;;;;5012404;28;20033;-59
2024/02/11 12:34:29;;;;;;;2.95;1.83;;;12.70;99.90;;;;;;5011000;28;20088;-59
2024/02/11 12:37:03;;;;;;;4.68;1.95;;;12.60;99.90;;;;;;5012196;28;20384;-58
2024/02/11 12:39:32;;;;;;;8.43;3.42;;;12.50;99.90;;;;;;5012359;28;20026;-59
2024/02/11 12:42:00;;;;;;;3.90;2.55;;;12.40;99.90;;;;;;5012441;28;20044;-58
2024/02/11 12:44:25;;;;;;;2.55;2.03;;;12.40;99.90;;;;;;5012081;28;20076;-59
2024/02/11 12:46:51;;;;;;;2.97;1.58;;;12.40;99.90;;;;;;5012380;28;20030;-59
2024/02/11 12:49:17;;;;;;;3.20;1.70;;;12.30;99.90;;;;;;5012395;28;20026;-59
2024/02/11 12:51:43;;;;;;;4.45;2.00;;;12.20;99.90;;;;;;5012233;28;20056;-58
2024/02/11 12:54:10;;;;;;;3.83;2.00;;;12.10;99.90;;;;;;5012067;28;20057;-59
2024/02/11 12:56:36;;;;;;;2.28;1.48;;;12.00;99.90;;;;;;5010982;28;20029;-58